sensor_id;sensor_type;location;lat;lon;timestamp;P1;durP1;ratioP1;P2;durP2;ratioP2
25439;SDS011;13365;52.208;5.488;2023-05-01T00:00:51;3.50;;;1.45;;
25439;SDS011;13365;52.208;5.488;2023-05-01T00:03:17;1.63;;;0.93;;
25439;SDS011;13365;52.208;5.488;2023-05-01T00:05:43;3.28;;;1.25;;
25439;SDS011;13365;52.208;5.488;2023-05-01T00:08:09;2.50;;;1.05;;
25439;SDS011;13365;52.208;5.488;2023-05-01T00:10:36;1.30;;;1.02;;
25439;SDS011;13365;52.208;5.488;2023-05-01T00:13:02;8.35;;;1.42;;
25439;SDS011;13365;52.208;5.488;2023-05-01T00:15:28;1.27;;;0.82;;
25439;SDS011;13365;52.208;5.488;2023-05-01T00:17:54;0.88;;;0.65;;
25439;SDS011;13365;52.208;5.488;2023-05-01T00:20:20;1.67;;;1.00;;
25439;SDS011;13365;52.208;5.488;2023-05-01T00:22:47;1.52;;;0.70;;
25439;SDS011;13365;52.208;5.488;2023-05-01T00:25:13;1.17;;;0.73;;
25439;SDS011;13365;52.208;5.488;2023-05-01T00:27:38;1.40;;;1.00;;
25439;SDS011;13365;52.208;5.488;2023-05-01T00:30:04;3.22;;;1.15;;
25439;SDS011;13365;52.208;5.488;2023-05-01T00:32:31;3.80;;;1.10;;
25439;SDS011;13365;52.208;5.488;2023-05-01T00:34:56;1.75;;;1.10;;
25439;SDS011;13365;52.208;5.488;2023-05-01T00:37:22;2.10;;;1.05;;
25439;SDS011;13365;52.208;5.488;2023-05-01T00:39:48;2.38;;;1.25;;
25439;SDS011;13365;52.208;5.488;2023-05-01T00:42:14;2.72;;;1.45;;
25439;SDS011;13365;52.208;5.488;2023-05-01T00:44:39;6.63;;;1.05;;
25439;SDS011;13365;52.208;5.488;2023-05-01T00:47:05;1.63;;;0.88;;
25439;SDS011;13365;52.208;5.488;2023-05-01T00:49:30;1.88;;;1.13;;
25439;SDS011;13365;52.208;5.488;2023-05-01T00:51:56;1.98;;;1.00;;
25439;SDS011;13365;52.208;5.488;2023-05-01T00:54:22;3.13;;;1.33;;
25439;SDS011;13365;52.208;5.488;2023-05-01T00:56:50;2.10;;;1.42;;
25439;SDS011;13365;52.208;5.488;2023-05-01T00:59:16;1.95;;;1.00;;
25439;SDS011;13365;52.208;5.488;2023-05-01T01:01:42;2.78;;;1.33;;
25439;SDS011;13365;52.208;5.488;2023-05-01T01:04:07;4.43;;;1.48;;
25439;SDS011;13365;52.208;5.488;2023-05-01T01:06:55;2.58;;;1.35;;
25439;SDS011;13365;52.208;5.488;2023-05-01T01:09:51;5.25;;;1.63;;
25439;SDS011;13365;52.208;5.488;2023-05-01T01:18:01;3.33;;;1.42;;
25439;SDS011;13365;52.208;5.488;2023-05-01T01:20:53;1.90;;;1.23;;
25439;SDS011;13365;52.208;5.488;2023-05-01T01:32:08;3.20;;;1.38;;
25439;SDS011;13365;52.208;5.488;2023-05-01T01:34:35;6.53;;;1.17;;
25439;SDS011;13365;52.208;5.488;2023-05-01T01:37:15;6.03;;;1.55;;
25439;SDS011;13365;52.208;5.488;2023-05-01T01:42:19;2.55;;;1.30;;
25439;SDS011;13365;52.208;5.488;2023-05-01T01:44:51;3.78;;;1.33;;
25439;SDS011;13365;52.208;5.488;2023-05-01T01:47:19;8.13;;;1.67;;
25439;SDS011;13365;52.208;5.488;2023-05-01T01:49:50;10.30;;;1.77;;
25439;SDS011;13365;52.208;5.488;2023-05-01T01:52:17;2.75;;;1.00;;
25439;SDS011;13365;52.208;5.488;2023-05-01T01:54:47;3.20;;;1.23;;
25439;SDS011;13365;52.208;5.488;2023-05-01T01:57:17;2.83;;;1.05;;
25439;SDS011;13365;52.208;5.488;2023-05-01T01:59:45;1.70;;;1.17;;
25439;SDS011;13365;52.208;5.488;2023-05-01T02:02:12;2.45;;;1.23;;
25439;SDS011;13365;52.208;5.488;2023-05-01T02:04:40;2.45;;;1.05;;
25439;SDS011;13365;52.208;5.488;2023-05-01T02:07:08;2.78;;;1.67;;
25439;SDS011;13365;52.208;5.488;2023-05-01T02:09:36;3.60;;;1.50;;
25439;SDS011;13365;52.208;5.488;2023-05-01T02:12:05;2.47;;;1.42;;
25439;SDS011;13365;52.208;5.488;2023-05-01T02:14:33;2.75;;;1.60;;
25439;SDS011;13365;52.208;5.488;2023-05-01T02:17:01;1.92;;;1.10;;
25439;SDS011;13365;52.208;5.488;2023-05-01T02:19:28;3.28;;;1.40;;
25439;SDS011;13365;52.208;5.488;2023-05-01T02:21:56;9.10;;;1.80;;
25439;SDS011;13365;52.208;5.488;2023-05-01T02:24:23;2.47;;;1.20;;
25439;SDS011;13365;52.208;5.488;2023-05-01T02:26:56;4.30;;;1.55;;
25439;SDS011;13365;52.208;5.488;2023-05-01T02:29:36;4.03;;;1.77;;
25439;SDS011;13365;52.208;5.488;2023-05-01T02:32:01;3.10;;;1.35;;
25439;SDS011;13365;52.208;5.488;2023-05-01T02:34:27;2.45;;;1.30;;
25439;SDS011;13365;52.208;5.488;2023-05-01T02:36:53;1.95;;;1.10;;
25439;SDS011;13365;52.208;5.488;2023-05-01T02:39:18;1.52;;;1.10;;
25439;SDS011;13365;52.208;5.488;2023-05-01T02:41:44;2.45;;;1.45;;
25439;SDS011;13365;52.208;5.488;2023-05-01T02:44:10;1.70;;;1.05;;
25439;SDS011;13365;52.208;5.488;2023-05-01T02:46:37;2.53;;;1.27;;
25439;SDS011;13365;52.208;5.488;2023-05-01T02:49:06;3.70;;;1.50;;
25439;SDS011;13365;52.208;5.488;2023-05-01T02:51:32;1.00;;;0.85;;
25439;SDS011;13365;52.208;5.488;2023-05-01T02:53:59;2.05;;;1.27;;
25439;SDS011;13365;52.208;5.488;2023-05-01T02:56:25;1.98;;;1.10;;
25439;SDS011;13365;52.208;5.488;2023-05-01T02:58:52;1.60;;;0.90;;
25439;SDS011;13365;52.208;5.488;2023-05-01T03:01:17;2.60;;;1.30;;
25439;SDS011;13365;52.208;5.488;2023-05-01T03:03:43;4.32;;;1.38;;
25439;SDS011;13365;52.208;5.488;2023-05-01T03:06:09;2.28;;;1.23;;
25439;SDS011;13365;52.208;5.488;2023-05-01T03:08:34;2.60;;;0.88;;
25439;SDS011;13365;52.208;5.488;2023-05-01T03:11:03;2.55;;;1.23;;
25439;SDS011;13365;52.208;5.488;2023-05-01T03:13:29;2.75;;;1.55;;
25439;SDS011;13365;52.208;5.488;2023-05-01T03:15:55;1.42;;;1.10;;
25439;SDS011;13365;52.208;5.488;2023-05-01T03:18:20;4.07;;;2.00;;
25439;SDS011;13365;52.208;5.488;2023-05-01T03:20:49;2.20;;;1.40;;
25439;SDS011;13365;52.208;5.488;2023-05-01T03:23:16;1.60;;;0.70;;
25439;SDS011;13365;52.208;5.488;2023-05-01T03:25:42;1.33;;;0.95;;
25439;SDS011;13365;52.208;5.488;2023-05-01T03:28:07;5.95;;;1.40;;
25439;SDS011;13365;52.208;5.488;2023-05-01T03:30:34;2.53;;;1.35;;
25439;SDS011;13365;52.208;5.488;2023-05-01T03:33:00;1.92;;;1.13;;
25439;SDS011;13365;52.208;5.488;2023-05-01T03:35:25;6.60;;;1.20;;
25439;SDS011;13365;52.208;5.488;2023-05-01T03:37:52;11.88;;;1.48;;
25439;SDS011;13365;52.208;5.488;2023-05-01T03:40:17;2.33;;;1.30;;
25439;SDS011;13365;52.208;5.488;2023-05-01T03:42:43;7.32;;;1.70;;
25439;SDS011;13365;52.208;5.488;2023-05-01T03:45:09;2.75;;;1.25;;
25439;SDS011;13365;52.208;5.488;2023-05-01T03:47:35;3.22;;;2.17;;
25439;SDS011;13365;52.208;5.488;2023-05-01T03:50:00;5.88;;;1.55;;
25439;SDS011;13365;52.208;5.488;2023-05-01T03:52:26;7.95;;;2.72;;
25439;SDS011;13365;52.208;5.488;2023-05-01T03:54:52;2.25;;;1.52;;
25439;SDS011;13365;52.208;5.488;2023-05-01T03:57:17;4.35;;;1.17;;
25439;SDS011;13365;52.208;5.488;2023-05-01T03:59:45;3.08;;;1.50;;
25439;SDS011;13365;52.208;5.488;2023-05-01T04:02:11;4.25;;;1.55;;
25439;SDS011;13365;52.208;5.488;2023-05-01T04:04:36;2.97;;;1.70;;
25439;SDS011;13365;52.208;5.488;2023-05-01T04:07:02;1.88;;;1.23;;
25439;SDS011;13365;52.208;5.488;2023-05-01T04:09:28;1.90;;;1.35;;
25439;SDS011;13365;52.208;5.488;2023-05-01T04:11:56;4.00;;;1.58;;
25439;SDS011;13365;52.208;5.488;2023-05-01T04:14:22;1.63;;;1.05;;
25439;SDS011;13365;52.208;5.488;2023-05-01T04:16:48;3.88;;;1.88;;
25439;SDS011;13365;52.208;5.488;2023-05-01T04:19:14;2.63;;;1.55;;
25439;SDS011;13365;52.208;5.488;2023-05-01T04:21:40;3.33;;;1.42;;
25439;SDS011;13365;52.208;5.488;2023-05-01T04:24:06;4.35;;;2.17;;
25439;SDS011;13365;52.208;5.488;2023-05-01T04:26:31;3.05;;;1.85;;
25439;SDS011;13365;52.208;5.488;2023-05-01T04:28:57;1.90;;;1.40;;
25439;SDS011;13365;52.208;5.488;2023-05-01T04:31:24;4.28;;;1.48;;
25439;SDS011;13365;52.208;5.488;2023-05-01T04:33:49;9.52;;;1.85;;
25439;SDS011;13365;52.208;5.488;2023-05-01T04:36:15;1.67;;;1.30;;
25439;SDS011;13365;52.208;5.488;2023-05-01T04:38:41;6.85;;;1.90;;
25439;SDS011;13365;52.208;5.488;2023-05-01T04:41:07;1.85;;;1.15;;
25439;SDS011;13365;52.208;5.488;2023-05-01T04:43:33;2.67;;;1.67;;
25439;SDS011;13365;52.208;5.488;2023-05-01T04:45:58;3.45;;;1.92;;
25439;SDS011;13365;52.208;5.488;2023-05-01T04:48:24;3.65;;;1.73;;
25439;SDS011;13365;52.208;5.488;2023-05-01T04:50:50;3.80;;;1.80;;
25439;SDS011;13365;52.208;5.488;2023-05-01T04:53:15;3.03;;;1.73;;
25439;SDS011;13365;52.208;5.488;2023-05-01T04:55:41;3.97;;;2.63;;
25439;SDS011;13365;52.208;5.488;2023-05-01T04:58:07;2.30;;;1.33;;
25439;SDS011;13365;52.208;5.488;2023-05-01T05:00:33;3.30;;;1.98;;
25439;SDS011;13365;52.208;5.488;2023-05-01T05:02:59;3.10;;;1.75;;
25439;SDS011;13365;52.208;5.488;2023-05-01T05:05:24;2.63;;;1.75;;
25439;SDS011;13365;52.208;5.488;2023-05-01T05:07:50;3.08;;;1.52;;
25439;SDS011;13365;52.208;5.488;2023-05-01T05:10:15;8.95;;;1.92;;
25439;SDS011;13365;52.208;5.488;2023-05-01T05:12:41;3.80;;;1.85;;
25439;SDS011;13365;52.208;5.488;2023-05-01T05:15:06;4.10;;;2.17;;
25439;SDS011;13365;52.208;5.488;2023-05-01T05:17:32;7.53;;;2.38;;
25439;SDS011;13365;52.208;5.488;2023-05-01T05:19:58;3.53;;;1.88;;
25439;SDS011;13365;52.208;5.488;2023-05-01T05:22:23;3.28;;;2.15;;
25439;SDS011;13365;52.208;5.488;2023-05-01T05:24:53;4.57;;;2.03;;
25439;SDS011;13365;52.208;5.488;2023-05-01T05:27:28;9.45;;;2.30;;
25439;SDS011;13365;52.208;5.488;2023-05-01T05:29:53;7.18;;;2.90;;
25439;SDS011;13365;52.208;5.488;2023-05-01T05:32:19;3.35;;;1.90;;
25439;SDS011;13365;52.208;5.488;2023-05-01T05:34:44;5.07;;;1.80;;
25439;SDS011;13365;52.208;5.488;2023-05-01T05:37:11;3.97;;;1.75;;
25439;SDS011;13365;52.208;5.488;2023-05-01T05:39:36;4.03;;;2.03;;
25439;SDS011;13365;52.208;5.488;2023-05-01T05:42:03;3.33;;;1.40;;
25439;SDS011;13365;52.208;5.488;2023-05-01T05:44:29;4.72;;;1.80;;
25439;SDS011;13365;52.208;5.488;2023-05-01T05:46:56;7.05;;;1.98;;
25439;SDS011;13365;52.208;5.488;2023-05-01T05:49:22;4.18;;;1.70;;
25439;SDS011;13365;52.208;5.488;2023-05-01T05:51:48;4.38;;;1.98;;
25439;SDS011;13365;52.208;5.488;2023-05-01T05:54:13;2.92;;;1.60;;
25439;SDS011;13365;52.208;5.488;2023-05-01T05:56:39;7.95;;;1.83;;
25439;SDS011;13365;52.208;5.488;2023-05-01T05:59:04;6.22;;;1.83;;
25439;SDS011;13365;52.208;5.488;2023-05-01T06:01:30;3.83;;;2.20;;
25439;SDS011;13365;52.208;5.488;2023-05-01T06:03:56;6.45;;;2.50;;
25439;SDS011;13365;52.208;5.488;2023-05-01T06:06:22;5.28;;;2.15;;
25439;SDS011;13365;52.208;5.488;2023-05-01T06:08:47;5.00;;;1.75;;
25439;SDS011;13365;52.208;5.488;2023-05-01T06:11:13;3.15;;;1.80;;
25439;SDS011;13365;52.208;5.488;2023-05-01T06:13:39;2.75;;;1.50;;
25439;SDS011;13365;52.208;5.488;2023-05-01T06:16:04;1.98;;;1.10;;
25439;SDS011;13365;52.208;5.488;2023-05-01T06:18:31;2.10;;;1.20;;
25439;SDS011;13365;52.208;5.488;2023-05-01T06:20:57;4.00;;;1.52;;
25439;SDS011;13365;52.208;5.488;2023-05-01T06:23:22;6.60;;;1.58;;
25439;SDS011;13365;52.208;5.488;2023-05-01T06:25:48;5.15;;;2.40;;
25439;SDS011;13365;52.208;5.488;2023-05-01T06:28:13;11.88;;;1.50;;
25439;SDS011;13365;52.208;5.488;2023-05-01T06:30:39;2.90;;;1.70;;
25439;SDS011;13365;52.208;5.488;2023-05-01T06:33:05;8.82;;;2.53;;
25439;SDS011;13365;52.208;5.488;2023-05-01T06:35:31;4.55;;;2.00;;
25439;SDS011;13365;52.208;5.488;2023-05-01T06:37:56;2.55;;;1.63;;
25439;SDS011;13365;52.208;5.488;2023-05-01T06:40:22;3.05;;;1.83;;
25439;SDS011;13365;52.208;5.488;2023-05-01T06:42:47;2.80;;;1.83;;
25439;SDS011;13365;52.208;5.488;2023-05-01T06:45:13;4.20;;;1.92;;
25439;SDS011;13365;52.208;5.488;2023-05-01T06:47:38;3.10;;;1.60;;
25439;SDS011;13365;52.208;5.488;2023-05-01T06:50:04;4.32;;;1.60;;
25439;SDS011;13365;52.208;5.488;2023-05-01T06:52:31;5.07;;;1.48;;
25439;SDS011;13365;52.208;5.488;2023-05-01T06:54:57;5.68;;;1.95;;
25439;SDS011;13365;52.208;5.488;2023-05-01T06:57:22;2.50;;;1.60;;
25439;SDS011;13365;52.208;5.488;2023-05-01T06:59:48;5.60;;;2.20;;
25439;SDS011;13365;52.208;5.488;2023-05-01T07:02:13;5.32;;;1.88;;
25439;SDS011;13365;52.208;5.488;2023-05-01T07:04:39;4.13;;;1.70;;
25439;SDS011;13365;52.208;5.488;2023-05-01T07:07:05;4.10;;;1.75;;
25439;SDS011;13365;52.208;5.488;2023-05-01T07:09:31;5.28;;;2.55;;
25439;SDS011;13365;52.208;5.488;2023-05-01T07:11:57;3.70;;;1.98;;
25439;SDS011;13365;52.208;5.488;2023-05-01T07:14:22;4.80;;;1.92;;
25439;SDS011;13365;52.208;5.488;2023-05-01T07:16:48;5.68;;;1.80;;
25439;SDS011;13365;52.208;5.488;2023-05-01T07:19:14;3.97;;;1.90;;
25439;SDS011;13365;52.208;5.488;2023-05-01T07:21:40;2.72;;;1.90;;
25439;SDS011;13365;52.208;5.488;2023-05-01T07:24:05;3.47;;;1.63;;
25439;SDS011;13365;52.208;5.488;2023-05-01T07:26:31;5.68;;;2.22;;
25439;SDS011;13365;52.208;5.488;2023-05-01T07:28:56;3.33;;;2.30;;
25439;SDS011;13365;52.208;5.488;2023-05-01T07:31:22;2.63;;;1.70;;
25439;SDS011;13365;52.208;5.488;2023-05-01T07:33:47;12.63;;;2.33;;
25439;SDS011;13365;52.208;5.488;2023-05-01T07:36:13;6.65;;;2.15;;
25439;SDS011;13365;52.208;5.488;2023-05-01T07:38:38;2.80;;;1.90;;
25439;SDS011;13365;52.208;5.488;2023-05-01T07:41:04;5.15;;;2.35;;
25439;SDS011;13365;52.208;5.488;2023-05-01T07:43:30;5.90;;;2.03;;
25439;SDS011;13365;52.208;5.488;2023-05-01T07:45:59;7.40;;;2.92;;
25439;SDS011;13365;52.208;5.488;2023-05-01T07:48:25;5.25;;;1.60;;
25439;SDS011;13365;52.208;5.488;2023-05-01T07:50:52;4.25;;;1.85;;
25439;SDS011;13365;52.208;5.488;2023-05-01T07:53:18;5.10;;;2.25;;
25439;SDS011;13365;52.208;5.488;2023-05-01T07:55:44;2.97;;;1.73;;
25439;SDS011;13365;52.208;5.488;2023-05-01T07:58:09;3.70;;;1.85;;
25439;SDS011;13365;52.208;5.488;2023-05-01T08:00:35;3.70;;;2.00;;
25439;SDS011;13365;52.208;5.488;2023-05-01T08:03:01;4.57;;;1.63;;
25439;SDS011;13365;52.208;5.488;2023-05-01T08:05:27;5.70;;;2.38;;
25439;SDS011;13365;52.208;5.488;2023-05-01T08:07:53;4.40;;;2.30;;
25439;SDS011;13365;52.208;5.488;2023-05-01T08:10:18;4.78;;;1.90;;
25439;SDS011;13365;52.208;5.488;2023-05-01T08:12:44;3.35;;;1.70;;
25439;SDS011;13365;52.208;5.488;2023-05-01T08:15:09;8.48;;;2.13;;
25439;SDS011;13365;52.208;5.488;2023-05-01T08:17:35;3.03;;;1.70;;
25439;SDS011;13365;52.208;5.488;2023-05-01T08:20:01;6.50;;;1.77;;
25439;SDS011;13365;52.208;5.488;2023-05-01T08:22:27;2.83;;;1.75;;
25439;SDS011;13365;52.208;5.488;2023-05-01T08:24:53;3.17;;;1.90;;
25439;SDS011;13365;52.208;5.488;2023-05-01T08:27:19;4.40;;;2.05;;
25439;SDS011;13365;52.208;5.488;2023-05-01T08:29:45;3.03;;;1.98;;
25439;SDS011;13365;52.208;5.488;2023-05-01T08:32:11;4.68;;;1.90;;
25439;SDS011;13365;52.208;5.488;2023-05-01T08:34:38;6.22;;;2.13;;
25439;SDS011;13365;52.208;5.488;2023-05-01T08:37:04;4.10;;;2.13;;
25439;SDS011;13365;52.208;5.488;2023-05-01T08:39:29;7.72;;;1.83;;
25439;SDS011;13365;52.208;5.488;2023-05-01T08:41:55;2.38;;;1.90;;
25439;SDS011;13365;52.208;5.488;2023-05-01T08:44:22;3.20;;;1.75;;
25439;SDS011;13365;52.208;5.488;2023-05-01T08:47:03;8.93;;;2.25;;
25439;SDS011;13365;52.208;5.488;2023-05-01T08:49:36;4.63;;;2.15;;
25439;SDS011;13365;52.208;5.488;2023-05-01T08:52:04;4.07;;;1.85;;
25439;SDS011;13365;52.208;5.488;2023-05-01T08:54:30;3.28;;;1.98;;
25439;SDS011;13365;52.208;5.488;2023-05-01T08:57:00;5.35;;;2.22;;
25439;SDS011;13365;52.208;5.488;2023-05-01T08:59:27;4.30;;;2.10;;
25439;SDS011;13365;52.208;5.488;2023-05-01T09:02:01;5.00;;;1.90;;
25439;SDS011;13365;52.208;5.488;2023-05-01T09:04:34;9.48;;;2.00;;
25439;SDS011;13365;52.208;5.488;2023-05-01T09:07:04;3.42;;;2.00;;
25439;SDS011;13365;52.208;5.488;2023-05-01T09:09:30;2.50;;;1.40;;
25439;SDS011;13365;52.208;5.488;2023-05-01T09:11:59;5.70;;;2.50;;
25439;SDS011;13365;52.208;5.488;2023-05-01T09:14:27;4.10;;;2.30;;
25439;SDS011;13365;52.208;5.488;2023-05-01T09:16:55;3.33;;;2.30;;
25439;SDS011;13365;52.208;5.488;2023-05-01T09:19:20;5.00;;;2.30;;
25439;SDS011;13365;52.208;5.488;2023-05-01T09:21:46;3.65;;;1.63;;
25439;SDS011;13365;52.208;5.488;2023-05-01T09:24:12;8.57;;;2.20;;
25439;SDS011;13365;52.208;5.488;2023-05-01T09:26:40;6.80;;;2.08;;
25439;SDS011;13365;52.208;5.488;2023-05-01T09:29:07;5.55;;;2.40;;
25439;SDS011;13365;52.208;5.488;2023-05-01T09:31:34;10.00;;;2.47;;
25439;SDS011;13365;52.208;5.488;2023-05-01T09:34:01;5.57;;;2.63;;
25439;SDS011;13365;52.208;5.488;2023-05-01T09:36:28;4.32;;;2.05;;
25439;SDS011;13365;52.208;5.488;2023-05-01T09:38:55;6.88;;;2.72;;
25439;SDS011;13365;52.208;5.488;2023-05-01T09:41:22;4.50;;;2.40;;
25439;SDS011;13365;52.208;5.488;2023-05-01T09:43:57;3.10;;;1.92;;
25439;SDS011;13365;52.208;5.488;2023-05-01T09:46:23;5.43;;;2.50;;
25439;SDS011;13365;52.208;5.488;2023-05-01T09:53:56;4.72;;;2.42;;
25439;SDS011;13365;52.208;5.488;2023-05-01T09:56:26;5.65;;;2.03;;
25439;SDS011;13365;52.208;5.488;2023-05-01T09:58:57;3.25;;;1.90;;
25439;SDS011;13365;52.208;5.488;2023-05-01T10:01:45;3.90;;;2.10;;
25439;SDS011;13365;52.208;5.488;2023-05-01T10:04:12;5.97;;;2.55;;
25439;SDS011;13365;52.208;5.488;2023-05-01T10:06:38;6.78;;;3.10;;
25439;SDS011;13365;52.208;5.488;2023-05-01T10:09:05;5.70;;;3.42;;
25439;SDS011;13365;52.208;5.488;2023-05-01T10:11:46;7.43;;;2.08;;
25439;SDS011;13365;52.208;5.488;2023-05-01T10:14:13;9.07;;;1.85;;
25439;SDS011;13365;52.208;5.488;2023-05-01T10:16:38;2.88;;;1.40;;
25439;SDS011;13365;52.208;5.488;2023-05-01T10:19:04;3.17;;;1.67;;
25439;SDS011;13365;52.208;5.488;2023-05-01T10:21:30;3.88;;;1.90;;
25439;SDS011;13365;52.208;5.488;2023-05-01T10:23:57;3.28;;;1.60;;
25439;SDS011;13365;52.208;5.488;2023-05-01T10:26:25;3.45;;;1.40;;
25439;SDS011;13365;52.208;5.488;2023-05-01T10:28:50;3.85;;;1.42;;
25439;SDS011;13365;52.208;5.488;2023-05-01T10:31:16;8.45;;;2.53;;
25439;SDS011;13365;52.208;5.488;2023-05-01T10:33:42;8.30;;;2.42;;
25439;SDS011;13365;52.208;5.488;2023-05-01T10:36:18;3.17;;;1.85;;
25439;SDS011;13365;52.208;5.488;2023-05-01T10:38:47;3.42;;;1.70;;
25439;SDS011;13365;52.208;5.488;2023-05-01T10:41:16;5.75;;;2.00;;
25439;SDS011;13365;52.208;5.488;2023-05-01T10:46:47;6.72;;;1.52;;
25439;SDS011;13365;52.208;5.488;2023-05-01T10:49:12;2.45;;;1.42;;
25439;SDS011;13365;52.208;5.488;2023-05-01T10:51:56;5.10;;;1.88;;
25439;SDS011;13365;52.208;5.488;2023-05-01T10:54:22;2.83;;;1.40;;
25439;SDS011;13365;52.208;5.488;2023-05-01T10:56:50;3.00;;;1.20;;
25439;SDS011;13365;52.208;5.488;2023-05-01T10:59:16;6.15;;;1.55;;
25439;SDS011;13365;52.208;5.488;2023-05-01T11:01:43;1.55;;;0.93;;
25439;SDS011;13365;52.208;5.488;2023-05-01T11:07:12;1.70;;;1.17;;
25439;SDS011;13365;52.208;5.488;2023-05-01T11:09:41;1.98;;;0.73;;
25439;SDS011;13365;52.208;5.488;2023-05-01T11:12:11;2.80;;;1.25;;
25439;SDS011;13365;52.208;5.488;2023-05-01T11:17:44;3.83;;;1.20;;
25439;SDS011;13365;52.208;5.488;2023-05-01T11:20:11;1.67;;;0.85;;
25439;SDS011;13365;52.208;5.488;2023-05-01T11:22:57;4.55;;;1.60;;
25439;SDS011;13365;52.208;5.488;2023-05-01T11:25:23;5.72;;;1.88;;
25439;SDS011;13365;52.208;5.488;2023-05-01T11:27:55;4.53;;;2.17;;
25439;SDS011;13365;52.208;5.488;2023-05-01T11:30:22;4.85;;;2.10;;
25439;SDS011;13365;52.208;5.488;2023-05-01T11:32:49;4.18;;;1.90;;
25439;SDS011;13365;52.208;5.488;2023-05-01T11:35:16;5.72;;;1.90;;
25439;SDS011;13365;52.208;5.488;2023-05-01T11:37:50;4.93;;;2.15;;
25439;SDS011;13365;52.208;5.488;2023-05-01T11:40:20;6.35;;;2.15;;
25439;SDS011;13365;52.208;5.488;2023-05-01T11:42:50;6.95;;;2.38;;
25439;SDS011;13365;52.208;5.488;2023-05-01T11:45:23;4.00;;;2.28;;
25439;SDS011;13365;52.208;5.488;2023-05-01T11:47:49;7.90;;;2.47;;
25439;SDS011;13365;52.208;5.488;2023-05-01T11:50:15;6.00;;;2.50;;
25439;SDS011;13365;52.208;5.488;2023-05-01T11:52:48;5.00;;;2.67;;
25439;SDS011;13365;52.208;5.488;2023-05-01T11:55:17;7.45;;;2.38;;
25439;SDS011;13365;52.208;5.488;2023-05-01T11:57:46;3.90;;;2.20;;
25439;SDS011;13365;52.208;5.488;2023-05-01T12:00:14;4.07;;;1.95;;
25439;SDS011;13365;52.208;5.488;2023-05-01T12:02:53;5.35;;;2.72;;
25439;SDS011;13365;52.208;5.488;2023-05-01T12:05:23;5.05;;;2.60;;
25439;SDS011;13365;52.208;5.488;2023-05-01T12:07:50;7.40;;;2.38;;
25439;SDS011;13365;52.208;5.488;2023-05-01T12:10:15;4.03;;;2.25;;
25439;SDS011;13365;52.208;5.488;2023-05-01T12:12:42;7.38;;;1.60;;
25439;SDS011;13365;52.208;5.488;2023-05-01T12:15:08;4.28;;;2.17;;
25439;SDS011;13365;52.208;5.488;2023-05-01T12:17:35;2.20;;;1.52;;
25439;SDS011;13365;52.208;5.488;2023-05-01T12:20:01;2.60;;;1.42;;
25439;SDS011;13365;52.208;5.488;2023-05-01T12:22:28;6.00;;;1.40;;
25439;SDS011;13365;52.208;5.488;2023-05-01T12:24:54;2.72;;;1.52;;
25439;SDS011;13365;52.208;5.488;2023-05-01T12:27:19;3.90;;;1.35;;
25439;SDS011;13365;52.208;5.488;2023-05-01T12:29:45;2.75;;;1.42;;
25439;SDS011;13365;52.208;5.488;2023-05-01T12:32:12;1.85;;;1.35;;
25439;SDS011;13365;52.208;5.488;2023-05-01T12:34:39;3.00;;;1.40;;
25439;SDS011;13365;52.208;5.488;2023-05-01T12:37:05;4.78;;;1.80;;
25439;SDS011;13365;52.208;5.488;2023-05-01T12:39:49;5.03;;;1.67;;
25439;SDS011;13365;52.208;5.488;2023-05-01T12:42:15;2.05;;;1.45;;
25439;SDS011;13365;52.208;5.488;2023-05-01T12:44:41;5.30;;;1.88;;
25439;SDS011;13365;52.208;5.488;2023-05-01T12:47:08;4.47;;;1.52;;
25439;SDS011;13365;52.208;5.488;2023-05-01T12:49:35;3.35;;;1.85;;
25439;SDS011;13365;52.208;5.488;2023-05-01T12:52:02;2.90;;;1.70;;
25439;SDS011;13365;52.208;5.488;2023-05-01T12:54:30;3.67;;;1.63;;
25439;SDS011;13365;52.208;5.488;2023-05-01T12:57:13;7.28;;;2.30;;
25439;SDS011;13365;52.208;5.488;2023-05-01T12:59:41;6.85;;;2.40;;
25439;SDS011;13365;52.208;5.488;2023-05-01T13:02:08;5.15;;;2.17;;
25439;SDS011;13365;52.208;5.488;2023-05-01T13:04:35;3.67;;;1.88;;
25439;SDS011;13365;52.208;5.488;2023-05-01T13:07:01;5.32;;;2.42;;
25439;SDS011;13365;52.208;5.488;2023-05-01T13:09:35;5.28;;;2.30;;
25439;SDS011;13365;52.208;5.488;2023-05-01T13:12:02;4.40;;;2.05;;
25439;SDS011;13365;52.208;5.488;2023-05-01T13:14:35;4.55;;;1.77;;
25439;SDS011;13365;52.208;5.488;2023-05-01T13:17:02;4.07;;;2.47;;
25439;SDS011;13365;52.208;5.488;2023-05-01T13:19:31;3.10;;;2.05;;
25439;SDS011;13365;52.208;5.488;2023-05-01T13:21:57;4.35;;;2.30;;
25439;SDS011;13365;52.208;5.488;2023-05-01T13:24:23;7.50;;;2.22;;
25439;SDS011;13365;52.208;5.488;2023-05-01T13:26:59;7.22;;;2.30;;
25439;SDS011;13365;52.208;5.488;2023-05-01T13:29:26;6.35;;;2.58;;
25439;SDS011;13365;52.208;5.488;2023-05-01T13:31:52;5.50;;;2.17;;
25439;SDS011;13365;52.208;5.488;2023-05-01T13:34:20;3.42;;;2.03;;
25439;SDS011;13365;52.208;5.488;2023-05-01T13:36:49;4.20;;;2.47;;
25439;SDS011;13365;52.208;5.488;2023-05-01T13:39:18;4.15;;;2.08;;
25439;SDS011;13365;52.208;5.488;2023-05-01T13:41:44;11.18;;;3.17;;
25439;SDS011;13365;52.208;5.488;2023-05-01T13:44:10;4.90;;;2.13;;
25439;SDS011;13365;52.208;5.488;2023-05-01T13:46:36;3.67;;;2.20;;
25439;SDS011;13365;52.208;5.488;2023-05-01T13:49:06;6.43;;;2.50;;
25439;SDS011;13365;52.208;5.488;2023-05-01T13:51:32;4.28;;;2.03;;
25439;SDS011;13365;52.208;5.488;2023-05-01T13:54:01;3.95;;;2.35;;
25439;SDS011;13365;52.208;5.488;2023-05-01T13:56:28;9.65;;;2.72;;
25439;SDS011;13365;52.208;5.488;2023-05-01T13:58:54;3.67;;;1.95;;
25439;SDS011;13365;52.208;5.488;2023-05-01T14:01:20;6.47;;;2.65;;
25439;SDS011;13365;52.208;5.488;2023-05-01T14:03:46;3.80;;;2.50;;
25439;SDS011;13365;52.208;5.488;2023-05-01T14:06:13;4.10;;;2.70;;
25439;SDS011;13365;52.208;5.488;2023-05-01T14:08:40;4.60;;;2.60;;
25439;SDS011;13365;52.208;5.488;2023-05-01T14:11:07;2.83;;;1.95;;
25439;SDS011;13365;52.208;5.488;2023-05-01T14:13:35;4.78;;;2.55;;
25439;SDS011;13365;52.208;5.488;2023-05-01T14:16:05;4.35;;;1.95;;
25439;SDS011;13365;52.208;5.488;2023-05-01T14:18:36;5.63;;;1.98;;
25439;SDS011;13365;52.208;5.488;2023-05-01T14:21:12;4.78;;;2.20;;
25439;SDS011;13365;52.208;5.488;2023-05-01T14:23:39;6.88;;;2.00;;
25439;SDS011;13365;52.208;5.488;2023-05-01T14:26:06;5.53;;;2.47;;
25439;SDS011;13365;52.208;5.488;2023-05-01T14:28:32;4.32;;;2.38;;
25439;SDS011;13365;52.208;5.488;2023-05-01T14:30:58;3.97;;;2.13;;
25439;SDS011;13365;52.208;5.488;2023-05-01T14:33:23;2.72;;;1.75;;
25439;SDS011;13365;52.208;5.488;2023-05-01T14:35:51;5.38;;;2.13;;
25439;SDS011;13365;52.208;5.488;2023-05-01T14:38:18;6.20;;;1.75;;
25439;SDS011;13365;52.208;5.488;2023-05-01T14:40:44;3.65;;;1.80;;
25439;SDS011;13365;52.208;5.488;2023-05-01T14:43:19;3.40;;;2.25;;
25439;SDS011;13365;52.208;5.488;2023-05-01T14:45:49;6.35;;;2.30;;
25439;SDS011;13365;52.208;5.488;2023-05-01T14:48:19;2.85;;;1.88;;
25439;SDS011;13365;52.208;5.488;2023-05-01T14:50:47;2.85;;;1.60;;
25439;SDS011;13365;52.208;5.488;2023-05-01T14:53:13;4.32;;;1.80;;
25439;SDS011;13365;52.208;5.488;2023-05-01T14:55:38;2.97;;;2.10;;
25439;SDS011;13365;52.208;5.488;2023-05-01T14:58:05;3.42;;;1.75;;
25439;SDS011;13365;52.208;5.488;2023-05-01T15:00:31;3.55;;;1.73;;
25439;SDS011;13365;52.208;5.488;2023-05-01T15:02:57;2.78;;;1.80;;
25439;SDS011;13365;52.208;5.488;2023-05-01T15:05:23;2.78;;;2.10;;
25439;SDS011;13365;52.208;5.488;2023-05-01T15:07:53;5.53;;;1.65;;
25439;SDS011;13365;52.208;5.488;2023-05-01T15:10:23;3.20;;;1.70;;
25439;SDS011;13365;52.208;5.488;2023-05-01T15:12:49;4.70;;;1.73;;
25439;SDS011;13365;52.208;5.488;2023-05-01T15:15:15;3.17;;;1.95;;
25439;SDS011;13365;52.208;5.488;2023-05-01T15:17:41;3.10;;;2.20;;
25439;SDS011;13365;52.208;5.488;2023-05-01T15:20:07;3.42;;;2.03;;